sensor_id;sensor_type;location;lat;lon;timestamp;P1;durP1;ratioP1;P2;durP2;ratioP2
23400;SDS011;11873;49.300;8.920;2023-06-10T00:00:08;6.77;;;6.17;;
23400;SDS011;11873;49.300;8.920;2023-06-10T00:05:08;6.73;;;6.13;;
23400;SDS011;11873;49.300;8.920;2023-06-10T00:10:09;6.67;;;5.97;;
23400;SDS011;11873;49.300;8.920;2023-06-10T00:15:09;6.67;;;6.07;;
23400;SDS011;11873;49.300;8.920;2023-06-10T00:20:10;6.93;;;6.33;;
23400;SDS011;11873;49.300;8.920;2023-06-10T00:25:10;6.90;;;5.43;;
23400;SDS011;11873;49.300;8.920;2023-06-10T00:30:10;6.50;;;5.90;;
23400;SDS011;11873;49.300;8.920;2023-06-10T00:35:11;7.33;;;5.90;;
23400;SDS011;11873;49.300;8.920;2023-06-10T00:40:11;6.37;;;5.87;;
23400;SDS011;11873;49.300;8.920;2023-06-10T00:45:11;6.30;;;5.80;;
23400;SDS011;11873;49.300;8.920;2023-06-10T00:50:11;5.83;;;5.33;;
23400;SDS011;11873;49.300;8.920;2023-06-10T00:55:12;5.73;;;5.23;;
23400;SDS011;11873;49.300;8.920;2023-06-10T01:00:12;7.57;;;5.73;;
23400;SDS011;11873;49.300;8.920;2023-06-10T01:05:12;5.30;;;4.90;;
23400;SDS011;11873;49.300;8.920;2023-06-10T01:10:17;6.10;;;5.50;;
23400;SDS011;11873;49.300;8.920;2023-06-10T01:15:19;8.33;;;5.87;;
23400;SDS011;11873;49.300;8.920;2023-06-10T01:20:19;6.80;;;6.20;;
23400;SDS011;11873;49.300;8.920;2023-06-10T01:25:20;6.70;;;6.10;;
23400;SDS011;11873;49.300;8.920;2023-06-10T01:30:21;6.73;;;6.03;;
23400;SDS011;11873;49.300;8.920;2023-06-10T01:35:24;6.13;;;5.60;;
23400;SDS011;11873;49.300;8.920;2023-06-10T01:40:25;6.43;;;5.83;;
23400;SDS011;11873;49.300;8.920;2023-06-10T01:45:25;5.93;;;5.53;;
23400;SDS011;11873;49.300;8.920;2023-06-10T01:50:25;6.43;;;5.83;;
23400;SDS011;11873;49.300;8.920;2023-06-10T01:55:25;5.83;;;5.30;;
23400;SDS011;11873;49.300;8.920;2023-06-10T02:00:26;6.10;;;5.50;;
23400;SDS011;11873;49.300;8.920;2023-06-10T02:05:26;5.83;;;5.23;;
23400;SDS011;11873;49.300;8.920;2023-06-10T02:10:26;6.00;;;5.50;;
23400;SDS011;11873;49.300;8.920;2023-06-10T02:15:26;7.10;;;6.20;;
23400;SDS011;11873;49.300;8.920;2023-06-10T02:20:26;6.00;;;5.50;;
23400;SDS011;11873;49.300;8.920;2023-06-10T02:25:27;8.57;;;6.00;;
23400;SDS011;11873;49.300;8.920;2023-06-10T02:30:27;7.07;;;5.27;;
23400;SDS011;11873;49.300;8.920;2023-06-10T02:35:27;8.27;;;6.13;;
23400;SDS011;11873;49.300;8.920;2023-06-10T02:40:27;5.80;;;5.30;;
23400;SDS011;11873;49.300;8.920;2023-06-10T02:45:27;6.60;;;6.00;;
23400;SDS011;11873;49.300;8.920;2023-06-10T02:50:27;6.17;;;5.27;;
23400;SDS011;11873;49.300;8.920;2023-06-10T02:55:28;6.07;;;5.20;;
23400;SDS011;11873;49.300;8.920;2023-06-10T03:00:28;6.50;;;5.77;;
23400;SDS011;11873;49.300;8.920;2023-06-10T03:05:29;6.23;;;5.67;;
23400;SDS011;11873;49.300;8.920;2023-06-10T03:10:29;6.07;;;5.57;;
23400;SDS011;11873;49.300;8.920;2023-06-10T03:15:29;6.10;;;5.53;;
23400;SDS011;11873;49.300;8.920;2023-06-10T03:20:29;6.37;;;5.77;;
23400;SDS011;11873;49.300;8.920;2023-06-10T03:25:29;6.00;;;5.40;;
23400;SDS011;11873;49.300;8.920;2023-06-10T03:30:29;7.43;;;5.60;;
23400;SDS011;11873;49.300;8.920;2023-06-10T03:35:30;6.27;;;5.53;;
23400;SDS011;11873;49.300;8.920;2023-06-10T03:40:30;5.30;;;4.80;;
23400;SDS011;11873;49.300;8.920;2023-06-10T03:45:30;5.67;;;5.17;;
23400;SDS011;11873;49.300;8.920;2023-06-10T03:50:30;5.80;;;5.30;;
23400;SDS011;11873;49.300;8.920;2023-06-10T03:55:30;8.10;;;5.73;;
23400;SDS011;11873;49.300;8.920;2023-06-10T04:00:31;6.80;;;5.30;;
23400;SDS011;11873;49.300;8.920;2023-06-10T04:05:31;5.90;;;5.40;;
23400;SDS011;11873;49.300;8.920;2023-06-10T04:10:31;6.97;;;5.53;;
23400;SDS011;11873;49.300;8.920;2023-06-10T04:15:31;6.13;;;5.17;;
23400;SDS011;11873;49.300;8.920;2023-06-10T04:20:31;7.10;;;5.43;;
23400;SDS011;11873;49.300;8.920;2023-06-10T04:25:31;5.40;;;5.00;;
23400;SDS011;11873;49.300;8.920;2023-06-10T04:30:32;6.90;;;5.30;;
23400;SDS011;11873;49.300;8.920;2023-06-10T04:35:32;5.40;;;5.00;;
23400;SDS011;11873;49.300;8.920;2023-06-10T04:40:32;6.10;;;5.50;;
23400;SDS011;11873;49.300;8.920;2023-06-10T04:45:32;6.57;;;5.53;;
23400;SDS011;11873;49.300;8.920;2023-06-10T04:50:32;6.63;;;5.33;;
23400;SDS011;11873;49.300;8.920;2023-06-10T04:55:33;6.07;;;5.47;;
23400;SDS011;11873;49.300;8.920;2023-06-10T05:00:33;6.17;;;5.57;;
23400;SDS011;11873;49.300;8.920;2023-06-10T05:05:33;6.53;;;5.93;;
23400;SDS011;11873;49.300;8.920;2023-06-10T05:10:33;6.53;;;5.93;;
23400;SDS011;11873;49.300;8.920;2023-06-10T05:15:33;6.20;;;5.60;;
23400;SDS011;11873;49.300;8.920;2023-06-10T05:20:33;6.50;;;5.90;;
23400;SDS011;11873;49.300;8.920;2023-06-10T05:25:34;6.80;;;5.93;;
23400;SDS011;11873;49.300;8.920;2023-06-10T05:30:34;5.90;;;5.40;;
23400;SDS011;11873;49.300;8.920;2023-06-10T05:35:34;6.40;;;5.33;;
23400;SDS011;11873;49.300;8.920;2023-06-10T05:40:34;5.97;;;5.47;;
23400;SDS011;11873;49.300;8.920;2023-06-10T05:45:34;6.23;;;5.53;;
23400;SDS011;11873;49.300;8.920;2023-06-10T05:50:35;6.43;;;5.67;;
23400;SDS011;11873;49.300;8.920;2023-06-10T05:55:35;6.23;;;5.33;;
23400;SDS011;11873;49.300;8.920;2023-06-10T06:00:35;6.40;;;5.33;;
23400;SDS011;11873;49.300;8.920;2023-06-10T06:05:38;5.70;;;5.20;;
23400;SDS011;11873;49.300;8.920;2023-06-10T06:10:38;4.70;;;4.23;;
23400;SDS011;11873;49.300;8.920;2023-06-10T06:15:39;6.37;;;5.77;;
23400;SDS011;11873;49.300;8.920;2023-06-10T06:20:39;5.00;;;4.60;;
23400;SDS011;11873;49.300;8.920;2023-06-10T06:25:39;5.57;;;5.07;;
23400;SDS011;11873;49.300;8.920;2023-06-10T06:30:40;4.73;;;4.33;;
23400;SDS011;11873;49.300;8.920;2023-06-10T06:35:40;4.87;;;4.20;;
23400;SDS011;11873;49.300;8.920;2023-06-10T06:40:40;4.37;;;4.07;;
23400;SDS011;11873;49.300;8.920;2023-06-10T06:45:40;5.20;;;4.80;;
23400;SDS011;11873;49.300;8.920;2023-06-10T06:50:40;5.60;;;5.00;;
23400;SDS011;11873;49.300;8.920;2023-06-10T06:55:41;6.83;;;4.50;;
23400;SDS011;11873;49.300;8.920;2023-06-10T07:00:41;4.87;;;4.47;;
23400;SDS011;11873;49.300;8.920;2023-06-10T07:05:41;6.03;;;5.27;;
23400;SDS011;11873;49.300;8.920;2023-06-10T07:10:41;5.17;;;4.67;;
23400;SDS011;11873;49.300;8.920;2023-06-10T07:15:41;5.37;;;4.87;;
23400;SDS011;11873;49.300;8.920;2023-06-10T07:20:42;5.73;;;4.20;;
23400;SDS011;11873;49.300;8.920;2023-06-10T07:25:42;6.10;;;5.50;;
23400;SDS011;11873;49.300;8.920;2023-06-10T07:30:42;5.17;;;4.67;;
23400;SDS011;11873;49.300;8.920;2023-06-10T07:35:42;5.47;;;4.97;;
23400;SDS011;11873;49.300;8.920;2023-06-10T07:40:42;5.53;;;4.10;;
23400;SDS011;11873;49.300;8.920;2023-06-10T07:45:43;5.07;;;4.67;;
23400;SDS011;11873;49.300;8.920;2023-06-10T07:50:43;4.53;;;4.13;;
23400;SDS011;11873;49.300;8.920;2023-06-10T07:55:43;3.83;;;3.57;;
23400;SDS011;11873;49.300;8.920;2023-06-10T08:00:43;4.57;;;4.17;;
23400;SDS011;11873;49.300;8.920;2023-06-10T08:05:43;4.13;;;3.83;;
23400;SDS011;11873;49.300;8.920;2023-06-10T08:10:44;4.67;;;3.97;;
23400;SDS011;11873;49.300;8.920;2023-06-10T08:15:44;5.40;;;4.30;;
23400;SDS011;11873;49.300;8.920;2023-06-10T08:20:44;3.90;;;3.60;;
23400;SDS011;11873;49.300;8.920;2023-06-10T08:25:44;4.00;;;3.70;;
23400;SDS011;11873;49.300;8.920;2023-06-10T08:30:44;3.63;;;3.33;;
23400;SDS011;11873;49.300;8.920;2023-06-10T08:35:45;4.60;;;4.07;;
23400;SDS011;11873;49.300;8.920;2023-06-10T08:40:45;5.17;;;4.77;;
23400;SDS011;11873;49.300;8.920;2023-06-10T08:45:45;3.58;;;3.28;;
23400;SDS011;11873;49.300;8.920;2023-06-10T08:50:48;5.70;;;5.10;;
23400;SDS011;11873;49.300;8.920;2023-06-10T08:55:53;4.37;;;4.07;;
23400;SDS011;11873;49.300;8.920;2023-06-10T09:00:53;4.77;;;4.37;;
23400;SDS011;11873;49.300;8.920;2023-06-10T09:05:54;5.10;;;4.67;;
23400;SDS011;11873;49.300;8.920;2023-06-10T09:10:55;5.67;;;4.93;;
23400;SDS011;11873;49.300;8.920;2023-06-10T09:15:55;4.67;;;4.27;;
23400;SDS011;11873;49.300;8.920;2023-06-10T09:20:55;4.27;;;3.97;;
23400;SDS011;11873;49.300;8.920;2023-06-10T09:25:56;4.40;;;4.00;;
23400;SDS011;11873;49.300;8.920;2023-06-10T09:31:03;4.40;;;4.10;;
23400;SDS011;11873;49.300;8.920;2023-06-10T09:36:04;5.17;;;4.67;;
23400;SDS011;11873;49.300;8.920;2023-06-10T09:41:04;4.97;;;4.53;;
23400;SDS011;11873;49.300;8.920;2023-06-10T09:46:04;3.77;;;3.47;;
23400;SDS011;11873;49.300;8.920;2023-06-10T09:51:08;3.60;;;3.40;;
23400;SDS011;11873;49.300;8.920;2023-06-10T09:56:08;4.63;;;4.23;;
23400;SDS011;11873;49.300;8.920;2023-06-10T10:01:09;3.70;;;3.37;;
23400;SDS011;11873;49.300;8.920;2023-06-10T10:06:10;3.60;;;3.30;;
23400;SDS011;11873;49.300;8.920;2023-06-10T10:11:10;5.53;;;4.87;;
23400;SDS011;11873;49.300;8.920;2023-06-10T10:16:25;5.03;;;4.53;;
23400;SDS011;11873;49.300;8.920;2023-06-10T10:21:28;4.27;;;3.93;;
23400;SDS011;11873;49.300;8.920;2023-06-10T10:26:32;4.23;;;3.83;;
23400;SDS011;11873;49.300;8.920;2023-06-10T10:31:32;4.00;;;3.70;;
23400;SDS011;11873;49.300;8.920;2023-06-10T10:36:34;3.37;;;3.07;;
23400;SDS011;11873;49.300;8.920;2023-06-10T10:41:35;3.20;;;2.90;;
23400;SDS011;11873;49.300;8.920;2023-06-10T10:46:43;4.00;;;3.70;;
23400;SDS011;11873;49.300;8.920;2023-06-10T11:02:15;3.53;;;3.23;;
23400;SDS011;11873;49.300;8.920;2023-06-10T11:07:15;5.03;;;4.63;;
23400;SDS011;11873;49.300;8.920;2023-06-10T11:12:22;4.20;;;3.90;;
23400;SDS011;11873;49.300;8.920;2023-06-10T11:17:22;3.03;;;2.83;;
23400;SDS011;11873;49.300;8.920;2023-06-10T11:22:22;3.73;;;3.37;;
23400;SDS011;11873;49.300;8.920;2023-06-10T11:27:23;2.63;;;2.43;;
23400;SDS011;11873;49.300;8.920;2023-06-10T11:32:24;5.17;;;3.40;;
23400;SDS011;11873;49.300;8.920;2023-06-10T11:37:28;2.70;;;2.50;;
23400;SDS011;11873;49.300;8.920;2023-06-10T11:42:28;3.60;;;3.20;;
23400;SDS011;11873;49.300;8.920;2023-06-10T11:47:28;2.70;;;2.50;;
23400;SDS011;11873;49.300;8.920;2023-06-10T11:52:30;4.47;;;3.20;;
23400;SDS011;11873;49.300;8.920;2023-06-10T11:57:33;3.20;;;2.90;;
23400;SDS011;11873;49.300;8.920;2023-06-10T12:02:33;4.77;;;3.43;;
23400;SDS011;11873;49.300;8.920;2023-06-10T12:07:33;4.57;;;4.13;;
23400;SDS011;11873;49.300;8.920;2023-06-10T12:12:37;3.57;;;3.30;;
23400;SDS011;11873;49.300;8.920;2023-06-10T12:17:37;3.10;;;2.80;;
23400;SDS011;11873;49.300;8.920;2023-06-10T12:22:41;2.43;;;2.30;;
23400;SDS011;11873;49.300;8.920;2023-06-10T12:27:50;3.13;;;2.93;;
23400;SDS011;11873;49.300;8.920;2023-06-10T12:32:51;2.83;;;2.63;;
23400;SDS011;11873;49.300;8.920;2023-06-10T12:37:57;3.50;;;3.20;;
23400;SDS011;11873;49.300;8.920;2023-06-10T12:42:58;4.13;;;3.73;;
23400;SDS011;11873;49.300;8.920;2023-06-10T12:48:17;2.97;;;2.77;;
23400;SDS011;11873;49.300;8.920;2023-06-10T12:53:18;2.67;;;2.47;;
23400;SDS011;11873;49.300;8.920;2023-06-10T12:58:19;3.60;;;2.93;;
23400;SDS011;11873;49.300;8.920;2023-06-10T13:03:19;2.93;;;2.73;;
23400;SDS011;11873;49.300;8.920;2023-06-10T13:08:20;2.30;;;2.10;;
23400;SDS011;11873;49.300;8.920;2023-06-10T13:13:20;3.00;;;2.80;;
23400;SDS011;11873;49.300;8.920;2023-06-10T13:18:20;3.60;;;2.77;;
23400;SDS011;11873;49.300;8.920;2023-06-10T13:23:20;3.23;;;2.93;;
23400;SDS011;11873;49.300;8.920;2023-06-10T13:28:20;3.00;;;2.77;;
23400;SDS011;11873;49.300;8.920;2023-06-10T13:33:21;3.67;;;2.90;;
23400;SDS011;11873;49.300;8.920;2023-06-10T13:38:21;3.40;;;2.73;;
23400;SDS011;11873;49.300;8.920;2023-06-10T13:43:21;2.90;;;2.70;;
23400;SDS011;11873;49.300;8.920;2023-06-10T13:48:21;2.87;;;2.53;;
23400;SDS011;11873;49.300;8.920;2023-06-10T13:53:21;2.83;;;2.63;;
23400;SDS011;11873;49.300;8.920;2023-06-10T13:58:21;2.83;;;2.63;;
23400;SDS011;11873;49.300;8.920;2023-06-10T14:03:22;4.83;;;3.47;;
23400;SDS011;11873;49.300;8.920;2023-06-10T14:08:22;2.87;;;2.67;;
23400;SDS011;11873;49.300;8.920;2023-06-10T14:13:22;4.00;;;2.43;;
23400;SDS011;11873;49.300;8.920;2023-06-10T14:18:22;3.83;;;3.53;;
23400;SDS011;11873;49.300;8.920;2023-06-10T14:23:22;2.40;;;2.30;;
23400;SDS011;11873;49.300;8.920;2023-06-10T14:28:22;3.20;;;2.90;;
23400;SDS011;11873;49.300;8.920;2023-06-10T14:33:23;3.17;;;2.90;;
23400;SDS011;11873;49.300;8.920;2023-06-10T14:38:23;4.47;;;3.77;;
23400;SDS011;11873;49.300;8.920;2023-06-10T14:43:23;3.80;;;3.47;;
23400;SDS011;11873;49.300;8.920;2023-06-10T14:48:23;3.77;;;2.80;;
23400;SDS011;11873;49.300;8.920;2023-06-10T14:53:23;3.47;;;3.23;;
23400;SDS011;11873;49.300;8.920;2023-06-10T14:58:24;3.50;;;3.30;;
23400;SDS011;11873;49.300;8.920;2023-06-10T15:03:24;5.53;;;3.63;;
23400;SDS011;11873;49.300;8.920;2023-06-10T15:08:24;5.00;;;4.40;;
23400;SDS011;11873;49.300;8.920;2023-06-10T15:13:24;3.50;;;3.20;;
23400;SDS011;11873;49.300;8.920;2023-06-10T15:18:24;3.00;;;2.80;;
23400;SDS011;11873;49.300;8.920;2023-06-10T15:23:24;2.93;;;2.73;;
23400;SDS011;11873;49.300;8.920;2023-06-10T15:28:25;3.17;;;2.97;;
23400;SDS011;11873;49.300;8.920;2023-06-10T15:33:25;3.53;;;3.23;;
23400;SDS011;11873;49.300;8.920;2023-06-10T15:38:25;3.83;;;3.53;;
23400;SDS011;11873;49.300;8.920;2023-06-10T15:43:25;3.20;;;3.00;;
23400;SDS011;11873;49.300;8.920;2023-06-10T15:48:25;4.63;;;3.63;;
23400;SDS011;11873;49.300;8.920;2023-06-10T15:53:26;3.47;;;3.10;;
23400;SDS011;11873;49.300;8.920;2023-06-10T15:58:26;4.10;;;3.40;;
23400;SDS011;11873;49.300;8.920;2023-06-10T16:03:26;4.27;;;3.87;;
23400;SDS011;11873;49.300;8.920;2023-06-10T16:08:26;3.80;;;3.13;;
23400;SDS011;11873;49.300;8.920;2023-06-10T16:13:26;3.37;;;2.90;;
23400;SDS011;11873;49.300;8.920;2023-06-10T16:18:26;4.23;;;3.10;;
23400;SDS011;11873;49.300;8.920;2023-06-10T16:23:27;2.83;;;2.63;;
23400;SDS011;11873;49.300;8.920;2023-06-10T16:28:27;3.90;;;3.60;;
23400;SDS011;11873;49.300;8.920;2023-06-10T16:33:27;3.23;;;2.93;;
23400;SDS011;11873;49.300;8.920;2023-06-10T16:38:27;3.10;;;2.80;;
23400;SDS011;11873;49.300;8.920;2023-06-10T16:43:27;4.03;;;2.83;;
23400;SDS011;11873;49.300;8.920;2023-06-10T16:48:27;3.73;;;3.30;;
23400;SDS011;11873;49.300;8.920;2023-06-10T16:53:28;3.77;;;2.03;;
23400;SDS011;11873;49.300;8.920;2023-06-10T16:58:28;2.70;;;2.57;;
23400;SDS011;11873;49.300;8.920;2023-06-10T17:03:28;3.57;;;3.27;;
23400;SDS011;11873;49.300;8.920;2023-06-10T17:08:28;2.37;;;2.23;;
23400;SDS011;11873;49.300;8.920;2023-06-10T17:13:28;3.27;;;2.47;;
23400;SDS011;11873;49.300;8.920;2023-06-10T17:18:29;2.87;;;2.47;;
23400;SDS011;11873;49.300;8.920;2023-06-10T17:23:29;2.57;;;2.37;;
23400;SDS011;11873;49.300;8.920;2023-06-10T17:28:29;3.00;;;2.80;;
23400;SDS011;11873;49.300;8.920;2023-06-10T17:33:30;2.40;;;2.20;;
23400;SDS011;11873;49.300;8.920;2023-06-10T17:38:30;2.50;;;2.30;;
23400;SDS011;11873;49.300;8.920;2023-06-10T17:43:30;2.80;;;2.60;;
23400;SDS011;11873;49.300;8.920;2023-06-10T17:48:30;2.57;;;2.37;;
23400;SDS011;11873;49.300;8.920;2023-06-10T17:53:31;2.03;;;1.93;;
23400;SDS011;11873;49.300;8.920;2023-06-10T17:58:31;2.17;;;2.07;;
23400;SDS011;11873;49.300;8.920;2023-06-10T18:03:31;2.03;;;1.90;;
23400;SDS011;11873;49.300;8.920;2023-06-10T18:08:31;2.57;;;2.40;;
23400;SDS011;11873;49.300;8.920;2023-06-10T18:13:31;2.60;;;2.40;;
23400;SDS011;11873;49.300;8.920;2023-06-10T18:18:31;2.43;;;2.23;;
23400;SDS011;11873;49.300;8.920;2023-06-10T18:23:32;2.47;;;2.33;;
23400;SDS011;11873;49.300;8.920;2023-06-10T18:28:32;2.63;;;2.43;;
23400;SDS011;11873;49.300;8.920;2023-06-10T18:33:33;2.80;;;2.60;;
23400;SDS011;11873;49.300;8.920;2023-06-10T18:38:33;4.17;;;2.83;;
23400;SDS011;11873;49.300;8.920;2023-06-10T18:43:33;3.00;;;2.77;;
23400;SDS011;11873;49.300;8.920;2023-06-10T18:48:33;1.87;;;1.77;;
23400;SDS011;11873;49.300;8.920;2023-06-10T18:53:33;3.83;;;3.53;;
23400;SDS011;11873;49.300;8.920;2023-06-10T18:58:34;8.27;;;3.80;;
23400;SDS011;11873;49.300;8.920;2023-06-10T19:03:34;3.47;;;2.90;;
23400;SDS011;11873;49.300;8.920;2023-06-10T19:08:34;3.33;;;3.13;;
23400;SDS011;11873;49.300;8.920;2023-06-10T19:13:34;3.13;;;2.93;;
23400;SDS011;11873;49.300;8.920;2023-06-10T19:18:34;3.80;;;3.50;;
23400;SDS011;11873;49.300;8.920;2023-06-10T19:23:34;3.67;;;3.37;;
23400;SDS011;11873;49.300;8.920;2023-06-10T19:28:35;4.27;;;3.83;;
23400;SDS011;11873;49.300;8.920;2023-06-10T19:33:35;3.83;;;3.53;;
23400;SDS011;11873;49.300;8.920;2023-06-10T19:38:35;7.30;;;6.00;;
23400;SDS011;11873;49.300;8.920;2023-06-10T19:43:35;4.03;;;3.70;;
23400;SDS011;11873;49.300;8.920;2023-06-10T19:48:35;4.27;;;3.87;;
23400;SDS011;11873;49.300;8.920;2023-06-10T19:53:35;4.53;;;3.97;;
23400;SDS011;11873;49.300;8.920;2023-06-10T19:58:36;4.30;;;3.97;;
23400;SDS011;11873;49.300;8.920;2023-06-10T20:03:36;3.90;;;3.60;;
23400;SDS011;11873;49.300;8.920;2023-06-10T20:08:36;4.10;;;3.80;;
23400;SDS011;11873;49.300;8.920;2023-06-10T20:13:36;5.33;;;3.73;;
23400;SDS011;11873;49.300;8.920;2023-06-10T20:18:36;4.40;;;4.00;;
23400;SDS011;11873;49.300;8.920;2023-06-10T20:23:36;4.67;;;4.00;;
23400;SDS011;11873;49.300;8.920;2023-06-10T20:28:37;4.33;;;4.03;;
23400;SDS011;11873;49.300;8.920;2023-06-10T20:33:37;4.23;;;3.87;;
23400;SDS011;11873;49.300;8.920;2023-06-10T20:38:37;6.13;;;4.10;;
23400;SDS011;11873;49.300;8.920;2023-06-10T20:43:37;4.00;;;3.67;;
23400;SDS011;11873;49.300;8.920;2023-06-10T20:48:38;3.60;;;3.33;;
23400;SDS011;11873;49.300;8.920;2023-06-10T20:53:38;4.63;;;4.23;;
23400;SDS011;11873;49.300;8.920;2023-06-10T20:58:38;4.00;;;3.70;;
23400;SDS011;11873;49.300;8.920;2023-06-10T21:03:39;4.40;;;4.00;;
23400;SDS011;11873;49.300;8.920;2023-06-10T21:08:39;6.37;;;3.80;;
23400;SDS011;11873;49.300;8.920;2023-06-10T21:13:39;4.13;;;3.83;;
23400;SDS011;11873;49.300;8.920;2023-06-10T21:18:39;4.97;;;4.57;;
23400;SDS011;11873;49.300;8.920;2023-06-10T21:23:39;4.20;;;3.90;;
23400;SDS011;11873;49.300;8.920;2023-06-10T21:28:40;4.77;;;4.13;;
23400;SDS011;11873;49.300;8.920;2023-06-10T21:33:40;4.20;;;3.90;;
23400;SDS011;11873;49.300;8.920;2023-06-10T21:38:40;4.47;;;4.13;;
23400;SDS011;11873;49.300;8.920;2023-06-10T21:43:40;4.07;;;3.77;;
23400;SDS011;11873;49.300;8.920;2023-06-10T21:48:41;5.27;;;4.77;;
23400;SDS011;11873;49.300;8.920;2023-06-10T21:53:41;4.70;;;4.30;;
23400;SDS011;11873;49.300;8.920;2023-06-10T21:58:42;4.10;;;3.80;;
23400;SDS011;11873;49.300;8.920;2023-06-10T22:03:43;5.33;;;4.50;;
23400;SDS011;11873;49.300;8.920;2023-06-10T22:08:43;5.17;;;4.67;;
23400;SDS011;11873;49.300;8.920;2023-06-10T22:13:43;4.33;;;4.03;;
23400;SDS011;11873;49.300;8.920;2023-06-10T22:18:43;4.87;;;4.40;;
23400;SDS011;11873;49.300;8.920;2023-06-10T22:23:44;4.67;;;4.07;;
23400;SDS011;11873;49.300;8.920;2023-06-10T22:28:44;5.20;;;4.70;;
23400;SDS011;11873;49.300;8.920;2023-06-10T22:33:44;4.93;;;4.53;;
23400;SDS011;11873;49.300;8.920;2023-06-10T22:38:44;4.63;;;4.23;;
23400;SDS011;11873;49.300;8.920;2023-06-10T22:43:44;4.13;;;3.83;;
23400;SDS011;11873;49.300;8.920;2023-06-10T22:48:45;4.93;;;4.53;;
23400;SDS011;11873;49.300;8.920;2023-06-10T22:53:45;4.70;;;4.30;;
23400;SDS011;11873;49.300;8.920;2023-06-10T22:58:45;4.67;;;4.27;;
23400;SDS011;11873;49.300;8.920;2023-06-10T23:03:45;4.87;;;4.37;;
23400;SDS011;11873;49.300;8.920;2023-06-10T23:08:46;5.30;;;4.80;;
23400;SDS011;11873;49.300;8.920;2023-06-10T23:13:47;4.67;;;4.27;;
23400;SDS011;11873;49.300;8.920;2023-06-10T23:18:47;5.50;;;5.00;;
23400;SDS011;11873;49.300;8.920;2023-06-10T23:23:47;4.87;;;4.47;;
23400;SDS011;11873;49.300;8.920;2023-06-10T23:28:48;6.03;;;4.73;;
23400;SDS011;11873;49.300;8.920;2023-06-10T23:33:48;5.53;;;4.57;;
23400;SDS011;11873;49.300;8.920;2023-06-10T23:38:48;4.90;;;4.50;;
23400;SDS011;11873;49.300;8.920;2023-06-10T23:43:48;4.47;;;4.10;;
23400;SDS011;11873;49.300;8.920;2023-06-10T23:48:49;4.93;;;4.53;;
23400;SDS011;11873;49.300;8.920;2023-06-10T23:53:49;5.43;;;4.93;;
23400;SDS011;11873;49.300;8.920;2023-06-10T23:58:49;4.63;;;4.23;;
